Time;durP1;ratioP1;P1;durP2;ratioP2;P2;SDS_P1;SDS_P2;PMS_P1;PMS_P2;Temp;Humidity;BMP_temperature;BMP_pressure;BME280_temperature;BME280_humidity;BME280_pressure;Samples;Min_cycle;Max_cycle;Signal;HPM_P1;HPM_P2
2022/03/01 00:00:47;;;;;;;9.70;5.00;;;;;;;;;;4995601;28;20955;-74
2022/03/01 00:03:15;;;;;;;11.73;6.17;;;;;;;;;;4995386;28;20545;-74
2022/03/01 00:05:43;;;;;;;13.53;7.03;;;;;;;;;;4995935;28;20513;-74
2022/03/01 00:08:13;;;;;;;14.57;6.97;;;;;;;;;;4996018;28;20460;-73
2022/03/01 00:10:41;;;;;;;11.13;6.27;;;;;;;;;;4995593;28;20551;-74
2022/03/01 00:13:08;;;;;;;14.33;6.60;;;;;;;;;;4976121;28;20706;-74
2022/03/01 00:15:37;;;;;;;12.53;6.63;;;;;;;;;;4975880;28;20449;-74
2022/03/01 00:18:07;;;;;;;11.17;6.70;;;;;;;;;;4974737;28;20553;-74
2022/03/01 00:20:34;;;;;;;10.70;5.33;;;;;;;;;;4988575;28;20460;-74
2022/03/01 00:23:05;;;;;;;8.80;5.50;;;;;;;;;;4994985;28;20487;-74
2022/03/01 00:25:33;;;;;;;17.40;6.23;;;;;;;;;;4995156;28;20456;-74
2022/03/01 00:28:03;;;;;;;12.17;6.33;;;;;;;;;;4995229;28;20536;-74
2022/03/01 00:30:34;;;;;;;11.20;7.23;;;;;;;;;;4995735;28;20543;-74
2022/03/01 00:33:01;;;;;;;11.50;6.83;;;;;;;;;;4995312;28;20458;-74
2022/03/01 00:35:31;;;;;;;13.10;7.47;;;;;;;;;;4995711;28;20534;-74
2022/03/01 00:37:59;;;;;;;15.97;5.73;;;;;;;;;;4994744;28;20440;-74
2022/03/01 00:40:27;;;;;;;12.87;6.77;;;;;;;;;;4995068;28;20468;-74
2022/03/01 00:42:54;;;;;;;9.43;5.60;;;;;;;;;;4995047;28;20951;-74
2022/03/01 00:45:22;;;;;;;12.80;6.37;;;;;;;;;;4994329;28;20488;-74
2022/03/01 00:47:50;;;;;;;11.57;5.20;;;;;;;;;;4994802;28;20463;-74
2022/03/01 00:50:18;;;;;;;10.53;6.10;;;;;;;;;;4995497;28;20463;-74
2022/03/01 00:52:47;;;;;;;15.90;6.70;;;;;;;;;;5016115;28;20464;-74
2022/03/01 00:55:17;;;;;;;13.87;6.60;;;;;;;;;;5015382;28;20467;-74
2022/03/01 00:57:44;;;;;;;15.17;7.00;;;;;;;;;;5014822;28;20451;-74
2022/03/01 01:00:13;;;;;;;12.10;6.60;;;;;;;;;;5014490;28;20463;-74
2022/03/01 01:02:41;;;;;;;14.27;7.17;;;;;;;;;;5014746;28;20487;-74
2022/03/01 01:05:09;;;;;;;15.10;6.90;;;;;;;;;;5014772;28;20455;-74
2022/03/01 01:07:37;;;;;;;17.73;7.10;;;;;;;;;;5014832;28;20452;-74
2022/03/01 01:10:08;;;;;;;13.40;6.50;;;;;;;;;;5014555;28;20435;-73
2022/03/01 01:12:36;;;;;;;10.23;6.17;;;;;;;;;;5013782;28;20471;-74
2022/03/01 01:15:04;;;;;;;14.60;7.07;;;;;;;;;;5014691;28;20456;-74
2022/03/01 01:17:32;;;;;;;13.87;6.97;;;;;;;;;;5014387;28;20448;-74
2022/03/01 01:20:00;;;;;;;10.90;6.00;;;;;;;;;;5014996;28;20458;-74
2022/03/01 01:22:43;;;;;;;12.17;7.53;;;;;;;;;;5014612;28;20456;-74
2022/03/01 01:25:16;;;;;;;15.27;8.10;;;;;;;;;;5013949;28;20549;-74
2022/03/01 01:27:46;;;;;;;12.30;6.83;;;;;;;;;;5014885;28;20456;-74
2022/03/01 01:30:15;;;;;;;7.97;5.17;;;;;;;;;;5014726;28;20525;-74
2022/03/01 01:32:43;;;;;;;11.83;7.27;;;;;;;;;;5014100;28;20707;-73
2022/03/01 01:35:12;;;;;;;13.00;7.40;;;;;;;;;;5013825;28;20530;-74
2022/03/01 01:37:41;;;;;;;9.90;6.23;;;;;;;;;;5014256;28;21090;-74
2022/03/01 01:40:10;;;;;;;14.40;9.47;;;;;;;;;;5014776;28;20525;-74
2022/03/01 01:42:39;;;;;;;16.13;8.10;;;;;;;;;;5014547;28;20459;-74
2022/03/01 01:45:07;;;;;;;14.77;5.80;;;;;;;;;;5013298;28;20770;-74
2022/03/01 01:47:38;;;;;;;9.73;5.80;;;;;;;;;;5014444;28;20545;-74
2022/03/01 01:50:07;;;;;;;12.13;7.10;;;;;;;;;;5014420;28;20463;-74
2022/03/01 01:52:35;;;;;;;16.70;7.03;;;;;;;;;;5014258;28;20459;-74
2022/03/01 01:55:03;;;;;;;9.23;7.20;;;;;;;;;;5014576;28;20883;-74
2022/03/01 01:57:31;;;;;;;14.70;6.67;;;;;;;;;;5014531;28;20902;-74
2022/03/01 02:00:01;;;;;;;12.87;7.90;;;;;;;;;;5014393;28;20451;-74
2022/03/01 02:02:29;;;;;;;16.37;6.70;;;;;;;;;;5015493;28;20475;-73
2022/03/01 02:04:56;;;;;;;14.23;7.30;;;;;;;;;;5014052;28;20466;-74
2022/03/01 02:07:24;;;;;;;13.80;6.90;;;;;;;;;;5014271;28;20450;-74
2022/03/01 02:09:52;;;;;;;14.30;7.40;;;;;;;;;;5014332;28;20591;-74
2022/03/01 02:12:22;;;;;;;12.90;6.00;;;;;;;;;;5013687;28;20483;-74
2022/03/01 02:14:50;;;;;;;12.57;6.20;;;;;;;;;;5014596;28;20462;-74
2022/03/01 02:17:19;;;;;;;13.53;6.77;;;;;;;;;;5015762;28;20462;-74
2022/03/01 02:19:50;;;;;;;12.20;6.70;;;;;;;;;;5015314;28;20464;-74
2022/03/01 02:22:20;;;;;;;13.53;7.13;;;;;;;;;;5016204;28;20874;-74
2022/03/01 02:24:48;;;;;;;13.27;7.03;;;;;;;;;;5016207;28;20483;-75
2022/03/01 02:27:16;;;;;;;15.30;7.40;;;;;;;;;;5015486;28;20532;-73
2022/03/01 02:29:43;;;;;;;11.97;7.40;;;;;;;;;;5014791;28;20455;-74
2022/03/01 02:32:11;;;;;;;13.50;6.97;;;;;;;;;;5014642;28;20463;-74
2022/03/01 02:34:40;;;;;;;14.37;7.20;;;;;;;;;;5015348;28;20469;-74
2022/03/01 02:37:09;;;;;;;18.17;7.00;;;;;;;;;;4995896;28;20486;-74
2022/03/01 02:39:38;;;;;;;13.40;6.10;;;;;;;;;;4995417;28;20456;-74
2022/03/01 02:42:06;;;;;;;13.77;6.07;;;;;;;;;;4994708;28;20458;-74
2022/03/01 02:44:36;;;;;;;12.93;7.07;;;;;;;;;;4995137;28;20483;-74
2022/03/01 02:47:04;;;;;;;14.40;7.10;;;;;;;;;;4997228;28;20468;-74
2022/03/01 02:49:32;;;;;;;17.10;7.00;;;;;;;;;;5006169;28;20547;-74
2022/03/01 02:52:01;;;;;;;9.70;6.43;;;;;;;;;;5017185;28;20470;-74
2022/03/01 02:54:29;;;;;;;12.50;5.93;;;;;;;;;;5016393;28;20447;-74
2022/03/01 02:56:59;;;;;;;13.47;7.97;;;;;;;;;;5017416;28;20463;-74
2022/03/01 02:59:29;;;;;;;12.03;6.57;;;;;;;;;;5017449;28;20459;-74
2022/03/01 03:01:57;;;;;;;12.67;6.47;;;;;;;;;;5018390;28;20463;-74
2022/03/01 03:04:25;;;;;;;12.03;5.97;;;;;;;;;;5018232;28;20483;-73
2022/03/01 03:06:53;;;;;;;10.87;7.27;;;;;;;;;;5017704;28;20740;-74
2022/03/01 03:09:23;;;;;;;17.07;7.10;;;;;;;;;;5018206;28;20742;-74
2022/03/01 03:11:54;;;;;;;12.50;6.83;;;;;;;;;;5019113;28;20517;-74
2022/03/01 03:14:23;;;;;;;15.43;6.53;;;;;;;;;;5017860;28;20455;-74
2022/03/01 03:16:51;;;;;;;18.80;8.00;;;;;;;;;;5018050;28;20452;-74
2022/03/01 03:19:22;;;;;;;9.07;5.17;;;;;;;;;;5017457;28;20459;-74
2022/03/01 03:21:49;;;;;;;12.63;6.60;;;;;;;;;;5017035;28;20521;-74
2022/03/01 03:24:17;;;;;;;10.60;5.97;;;;;;;;;;5016569;28;20514;-74
2022/03/01 03:26:45;;;;;;;15.23;6.77;;;;;;;;;;5011205;28;20447;-74
2022/03/01 03:29:13;;;;;;;11.53;6.03;;;;;;;;;;5016302;28;20491;-74
2022/03/01 03:31:43;;;;;;;13.80;6.90;;;;;;;;;;5016912;28;20479;-74
2022/03/01 03:34:11;;;;;;;13.33;7.27;;;;;;;;;;5016225;28;20819;-73
2022/03/01 03:36:40;;;;;;;11.00;6.70;;;;;;;;;;5016352;28;20844;-74
2022/03/01 03:39:10;;;;;;;10.07;5.50;;;;;;;;;;5017118;28;20515;-74
2022/03/01 03:41:38;;;;;;;15.27;7.13;;;;;;;;;;5016137;28;20497;-74
2022/03/01 03:44:14;;;;;;;15.67;7.13;;;;;;;;;;5017197;28;20506;-75
2022/03/01 03:46:43;;;;;;;15.60;7.40;;;;;;;;;;5018073;28;20458;-74
2022/03/01 03:49:10;;;;;;;12.87;6.33;;;;;;;;;;5017293;28;20494;-75
2022/03/01 03:51:41;;;;;;;10.93;6.47;;;;;;;;;;5018666;28;20462;-74
2022/03/01 03:54:09;;;;;;;14.63;7.60;;;;;;;;;;5017080;28;20493;-75
2022/03/01 03:56:37;;;;;;;17.57;7.20;;;;;;;;;;5015550;28;20448;-74
2022/03/01 03:59:07;;;;;;;10.00;6.60;;;;;;;;;;5017426;28;20451;-75
2022/03/01 04:01:59;;;;;;;18.20;7.47;;;;;;;;;;5016884;28;20451;-74
2022/03/01 04:04:31;;;;;;;13.63;7.60;;;;;;;;;;5016153;28;20479;-75
2022/03/01 04:07:00;;;;;;;16.63;7.90;;;;;;;;;;5017036;28;20482;-75
2022/03/01 04:09:29;;;;;;;15.40;7.07;;;;;;;;;;5016906;28;20859;-75
2022/03/01 04:11:56;;;;;;;12.50;6.97;;;;;;;;;;5015939;28;20455;-74
2022/03/01 04:14:24;;;;;;;11.97;5.50;;;;;;;;;;5016291;28;20894;-75
2022/03/01 04:16:55;;;;;;;12.50;4.70;;;;;;;;;;5016108;28;20467;-74
2022/03/01 04:19:22;;;;;;;14.40;7.40;;;;;;;;;;5015539;28;20883;-74
2022/03/01 04:21:52;;;;;;;12.73;7.07;;;;;;;;;;5015481;28;20532;-75
2022/03/01 04:24:26;;;;;;;14.87;5.87;;;;;;;;;;5015320;28;20499;-74
2022/03/01 04:26:59;;;;;;;9.60;6.17;;;;;;;;;;5014554;28;20461;-74
2022/03/01 04:29:35;;;;;;;20.67;8.20;;;;;;;;;;5015549;28;20468;-73
2022/03/01 04:35:03;;;;;;;15.77;6.03;;;;;;;;;;5016647;28;20477;-74
2022/03/01 04:37:34;;;;;;;13.43;6.87;;;;;;;;;;5015267;28;20491;-75
2022/03/01 04:40:02;;;;;;;14.70;6.07;;;;;;;;;;5013344;28;20452;-75
2022/03/01 04:42:35;;;;;;;8.30;5.07;;;;;;;;;;5014970;28;20469;-75
2022/03/01 04:45:05;;;;;;;16.83;7.87;;;;;;;;;;5014737;28;20487;-75
2022/03/01 04:47:33;;;;;;;14.53;7.40;;;;;;;;;;5014237;28;20460;-74
2022/03/01 04:50:07;;;;;;;22.73;7.90;;;;;;;;;;5014829;28;20554;-74
2022/03/01 04:52:39;;;;;;;12.13;7.73;;;;;;;;;;5014556;28;20463;-75
2022/03/01 04:55:08;;;;;;;16.33;7.63;;;;;;;;;;5014602;28;20465;-75
2022/03/01 04:57:39;;;;;;;13.37;7.10;;;;;;;;;;5027969;28;20483;-75
2022/03/01 05:00:16;;;;;;;14.03;6.67;;;;;;;;;;5012614;28;20463;-74
2022/03/01 05:03:08;;;;;;;14.03;7.10;;;;;;;;;;5014175;28;20497;-74
2022/03/01 05:05:38;;;;;;;16.07;7.63;;;;;;;;;;5015872;28;20953;-74
2022/03/01 05:08:10;;;;;;;16.43;7.57;;;;;;;;;;5013645;28;20447;-75
2022/03/01 05:10:38;;;;;;;11.43;6.80;;;;;;;;;;5013748;28;20463;-75
2022/03/01 05:13:08;;;;;;;10.30;6.70;;;;;;;;;;5013649;28;20500;-74
2022/03/01 05:15:36;;;;;;;19.57;7.50;;;;;;;;;;5015191;28;20524;-75
2022/03/01 05:18:04;;;;;;;13.27;7.13;;;;;;;;;;5014013;28;20452;-74
2022/03/01 05:20:32;;;;;;;17.40;7.23;;;;;;;;;;5013871;28;20536;-74
2022/03/01 05:23:00;;;;;;;15.03;8.00;;;;;;;;;;5014179;28;20490;-74
2022/03/01 05:25:29;;;;;;;16.33;7.77;;;;;;;;;;5013721;28;20514;-74
2022/03/01 05:28:20;;;;;;;16.23;8.53;;;;;;;;;;5014205;28;20451;-74
2022/03/01 05:31:02;;;;;;;20.83;7.93;;;;;;;;;;5017188;28;20464;-74
2022/03/01 05:33:30;;;;;;;16.33;8.80;;;;;;;;;;5013300;28;20462;-74
2022/03/01 05:36:01;;;;;;;12.80;6.90;;;;;;;;;;5013571;28;20546;-74
2022/03/01 05:38:29;;;;;;;17.40;10.23;;;;;;;;;;5013780;28;20542;-74
2022/03/01 05:41:01;;;;;;;14.83;8.70;;;;;;;;;;5013822;28;20487;-74
2022/03/01 05:43:31;;;;;;;15.40;8.93;;;;;;;;;;5013488;28;21005;-74
2022/03/01 05:45:59;;;;;;;13.00;7.83;;;;;;;;;;5013604;28;20495;-73
2022/03/01 05:48:35;;;;;;;14.20;7.57;;;;;;;;;;5013945;28;21017;-74
2022/03/01 05:51:06;;;;;;;17.70;7.43;;;;;;;;;;5013582;28;20466;-74
2022/03/01 05:53:45;;;;;;;18.77;9.80;;;;;;;;;;5013044;28;20547;-74
2022/03/01 05:56:14;;;;;;;13.73;8.80;;;;;;;;;;5014109;28;20509;-74
2022/03/01 05:58:47;;;;;;;16.97;8.23;;;;;;;;;;5013332;28;20503;-74
2022/03/01 06:01:14;;;;;;;16.83;7.90;;;;;;;;;;5012690;28;20913;-74
2022/03/01 06:03:44;;;;;;;15.47;8.27;;;;;;;;;;5013077;28;20458;-74
2022/03/01 06:06:12;;;;;;;16.90;8.40;;;;;;;;;;5012506;28;20502;-74
2022/03/01 06:08:40;;;;;;;19.23;9.17;;;;;;;;;;5013059;28;20451;-74
2022/03/01 06:11:08;;;;;;;13.83;8.50;;;;;;;;;;5012512;28;20459;-74
2022/03/01 06:13:43;;;;;;;16.00;7.60;;;;;;;;;;5012284;28;20463;-74
2022/03/01 06:16:13;;;;;;;16.47;8.47;;;;;;;;;;5012814;28;20462;-74
2022/03/01 06:18:41;;;;;;;15.50;9.07;;;;;;;;;;5013051;28;20886;-73
2022/03/01 06:21:19;;;;;;;19.77;9.80;;;;;;;;;;5013561;28;20516;-74
2022/03/01 06:23:49;;;;;;;20.53;9.63;;;;;;;;;;5014821;28;20442;-74
2022/03/01 06:26:17;;;;;;;14.10;8.00;;;;;;;;;;5015325;28;20427;-74
2022/03/01 06:28:52;;;;;;;16.37;8.90;;;;;;;;;;5014714;28;20553;-74
2022/03/01 06:31:26;;;;;;;11.50;7.53;;;;;;;;;;5014214;28;20511;-74
2022/03/01 06:33:58;;;;;;;12.67;8.00;;;;;;;;;;5013201;28;20455;-74
2022/03/01 06:36:31;;;;;;;15.23;8.10;;;;;;;;;;5013776;28;20485;-74
2022/03/01 06:38:59;;;;;;;17.90;9.53;;;;;;;;;;5013891;28;20468;-74
2022/03/01 06:41:30;;;;;;;16.73;8.47;;;;;;;;;;5015298;28;20839;-74
2022/03/01 06:44:00;;;;;;;11.83;6.53;;;;;;;;;;5014024;28;20442;-74
2022/03/01 06:46:31;;;;;;;17.47;8.30;;;;;;;;;;5013812;28;20558;-75
2022/03/01 06:49:04;;;;;;;18.10;10.33;;;;;;;;;;5014404;28;20577;-75
2022/03/01 06:51:32;;;;;;;15.30;9.73;;;;;;;;;;5013742;28;20462;-74
2022/03/01 06:54:00;;;;;;;15.97;10.60;;;;;;;;;;5013812;28;20879;-74
2022/03/01 06:56:31;;;;;;;16.37;8.20;;;;;;;;;;4991394;28;20529;-74
2022/03/01 06:59:02;;;;;;;18.70;9.20;;;;;;;;;;5007524;28;20463;-74
2022/03/01 07:01:33;;;;;;;18.87;9.30;;;;;;;;;;4993577;28;20476;-74
2022/03/01 07:04:04;;;;;;;22.07;10.40;;;;;;;;;;4995155;28;20714;-73
2022/03/01 07:06:44;;;;;;;13.70;7.07;;;;;;;;;;5012790;28;20452;-73
2022/03/01 07:09:14;;;;;;;14.57;8.60;;;;;;;;;;5014979;28;20486;-74
2022/03/01 07:11:46;;;;;;;15.87;7.97;;;;;;;;;;5013180;28;20439;-74
2022/03/01 07:14:32;;;;;;;22.47;8.03;;;;;;;;;;5007410;28;21055;-74
2022/03/01 07:17:02;;;;;;;16.73;9.90;;;;;;;;;;5019951;28;20518;-74
2022/03/01 07:19:29;;;;;;;18.60;10.10;;;;;;;;;;5014013;28;20555;-74
2022/03/01 07:22:03;;;;;;;18.67;8.47;;;;;;;;;;5014039;28;20483;-74
2022/03/01 07:24:33;;;;;;;22.10;10.50;;;;;;;;;;5013216;28;20870;-74
2022/03/01 07:27:04;;;;;;;20.37;11.40;;;;;;;;;;5012629;28;20448;-74
2022/03/01 07:29:42;;;;;;;15.97;8.40;;;;;;;;;;5014302;28;20517;-74
2022/03/01 07:32:10;;;;;;;17.93;7.97;;;;;;;;;;5013732;28;20454;-71
2022/03/01 07:34:38;;;;;;;18.57;9.10;;;;;;;;;;5013481;28;20460;-74
2022/03/01 07:37:07;;;;;;;22.37;10.00;;;;;;;;;;5026880;28;20458;-74
2022/03/01 07:39:35;;;;;;;19.53;10.37;;;;;;;;;;5033648;28;20478;-73
2022/03/01 07:42:07;;;;;;;20.27;9.27;;;;;;;;;;5027937;27;20748;-73
2022/03/01 07:44:38;;;;;;;11.60;7.10;;;;;;;;;;5006876;28;20456;-73
2022/03/01 07:47:21;;;;;;;19.57;9.20;;;;;;;;;;5018163;28;20454;-72
2022/03/01 07:49:54;;;;;;;14.70;8.50;;;;;;;;;;5084801;28;20534;-73
2022/03/01 07:52:22;;;;;;;16.20;9.10;;;;;;;;;;5118186;28;20435;-73
2022/03/01 07:54:56;;;;;;;15.97;9.03;;;;;;;;;;5093324;28;20469;-73
2022/03/01 07:57:24;;;;;;;16.87;9.67;;;;;;;;;;5023494;28;20773;-72
2022/03/01 07:59:59;;;;;;;13.60;9.03;;;;;;;;;;5015782;28;20862;-74
2022/03/01 08:02:30;;;;;;;18.03;9.40;;;;;;;;;;5032943;28;20465;-74
2022/03/01 08:07:56;;;;;;;15.63;9.40;;;;;;;;;;5108637;28;20453;-74
2022/03/01 08:10:29;;;;;;;14.03;8.17;;;;;;;;;;5010845;28;20451;-73
2022/03/01 08:13:12;;;;;;;18.13;10.50;;;;;;;;;;5005696;28;20456;-74
2022/03/01 08:15:44;;;;;;;16.73;9.27;;;;;;;;;;5012108;28;20450;-73
2022/03/01 08:18:15;;;;;;;13.70;8.90;;;;;;;;;;5013141;28;20450;-73
2022/03/01 08:20:42;;;;;;;14.87;8.80;;;;;;;;;;5011294;28;20670;-73
2022/03/01 08:23:11;;;;;;;15.37;9.17;;;;;;;;;;5022425;28;20509;-73
2022/03/01 08:25:39;;;;;;;15.47;8.50;;;;;;;;;;5022804;28;20962;-73
2022/03/01 08:28:18;;;;;;;11.67;8.40;;;;;;;;;;5020952;28;20463;-72
2022/03/01 08:31:08;;;;;;;18.03;9.40;;;;;;;;;;5014537;28;20862;-72
2022/03/01 08:33:46;;;;;;;16.53;7.97;;;;;;;;;;5016422;28;20455;-74
2022/03/01 08:36:15;;;;;;;14.50;8.80;;;;;;;;;;5018654;28;20449;-72
2022/03/01 08:38:43;;;;;;;22.57;10.20;;;;;;;;;;5025116;28;20443;-72
2022/03/01 08:41:11;;;;;;;14.00;8.53;;;;;;;;;;5016317;28;20461;-72
2022/03/01 08:43:48;;;;;;;17.13;8.87;;;;;;;;;;5017235;28;20458;-73
2022/03/01 08:46:17;;;;;;;22.97;8.97;;;;;;;;;;5046012;28;20483;-72
2022/03/01 08:48:47;;;;;;;18.70;9.67;;;;;;;;;;5012589;28;20603;-73
2022/03/01 08:51:16;;;;;;;15.17;9.13;;;;;;;;;;5011864;28;20462;-73
2022/03/01 08:53:44;;;;;;;16.13;8.90;;;;;;;;;;5011054;28;20491;-73
2022/03/01 08:56:18;;;;;;;15.73;9.77;;;;;;;;;;5011535;28;20565;-73
2022/03/01 08:58:49;;;;;;;12.43;8.33;;;;;;;;;;5046253;28;20455;-73
2022/03/01 09:01:17;;;;;;;20.10;10.63;;;;;;;;;;5107710;28;20446;-72
2022/03/01 09:03:46;;;;;;;13.50;9.20;;;;;;;;;;5088689;28;20478;-73
2022/03/01 09:06:17;;;;;;;30.73;15.90;;;;;;;;;;5012173;28;20514;-73
2022/03/01 09:09:00;;;;;;;17.83;9.27;;;;;;;;;;5011455;28;20454;-73
2022/03/01 09:11:28;;;;;;;18.73;9.37;;;;;;;;;;5009892;28;20487;-73
2022/03/01 09:13:58;;;;;;;18.40;9.20;;;;;;;;;;5011929;28;20451;-72
2022/03/01 09:16:30;;;;;;;15.27;8.23;;;;;;;;;;5011872;28;20455;-72
2022/03/01 09:19:15;;;;;;;16.93;9.00;;;;;;;;;;5012190;28;20704;-71
2022/03/01 09:21:56;;;;;;;16.67;8.43;;;;;;;;;;5011602;28;20444;-72
2022/03/01 09:24:24;;;;;;;15.13;8.53;;;;;;;;;;5011955;28;20563;-72
2022/03/01 09:26:55;;;;;;;13.80;8.83;;;;;;;;;;5011643;28;20510;-73
2022/03/01 09:29:35;;;;;;;20.50;10.67;;;;;;;;;;5012035;28;20470;-73
2022/03/01 09:32:05;;;;;;;24.30;10.43;;;;;;;;;;5010714;28;20477;-72
2022/03/01 09:34:34;;;;;;;14.13;7.00;;;;;;;;;;5010723;28;20459;-72
2022/03/01 09:37:02;;;;;;;21.70;9.37;;;;;;;;;;5013015;28;20494;-73
2022/03/01 09:39:48;;;;;;;16.93;9.73;;;;;;;;;;5012162;28;20528;-72
2022/03/01 09:42:35;;;;;;;13.63;7.90;;;;;;;;;;5059017;28;20731;-73
2022/03/01 09:45:04;;;;;;;14.10;9.17;;;;;;;;;;5017618;28;20470;-73
2022/03/01 09:47:32;;;;;;;14.33;7.70;;;;;;;;;;5008917;28;20999;-74
2022/03/01 09:50:17;;;;;;;17.23;8.73;;;;;;;;;;5013695;28;20629;-73
2022/03/01 09:52:50;;;;;;;15.47;9.07;;;;;;;;;;5011330;28;20799;-73
2022/03/01 09:55:20;;;;;;;15.43;9.57;;;;;;;;;;5008096;28;20976;-72
2022/03/01 09:57:53;;;;;;;16.10;8.53;;;;;;;;;;4995534;28;20453;-72
2022/03/01 10:00:24;;;;;;;15.90;8.67;;;;;;;;;;5013199;28;20739;-72
2022/03/01 10:02:55;;;;;;;12.20;8.90;;;;;;;;;;5015707;28;20450;-71
2022/03/01 10:05:34;;;;;;;12.97;7.97;;;;;;;;;;5024308;28;20489;-71
2022/03/01 10:08:09;;;;;;;14.63;9.07;;;;;;;;;;5032940;28;20448;-71
2022/03/01 10:10:43;;;;;;;16.63;8.30;;;;;;;;;;5016756;28;20471;-71
2022/03/01 10:13:11;;;;;;;15.33;9.53;;;;;;;;;;5010090;28;20883;-71
2022/03/01 10:15:41;;;;;;;19.33;9.13;;;;;;;;;;5013367;28;20822;-72
2022/03/01 10:18:17;;;;;;;16.53;9.60;;;;;;;;;;5013146;28;20728;-73
2022/03/01 10:20:50;;;;;;;19.93;8.70;;;;;;;;;;5010124;28;20506;-73
2022/03/01 10:23:45;;;;;;;17.90;10.50;;;;;;;;;;5014875;28;20474;-72
2022/03/01 10:26:16;;;;;;;17.57;10.47;;;;;;;;;;5014213;28;20487;-72
2022/03/01 10:28:46;;;;;;;20.67;10.50;;;;;;;;;;5019326;28;20835;-72
2022/03/01 10:31:18;;;;;;;17.10;9.60;;;;;;;;;;5021070;28;20525;-72
2022/03/01 10:33:58;;;;;;;15.83;10.20;;;;;;;;;;5015292;28;20455;-72
2022/03/01 10:36:27;;;;;;;16.40;9.40;;;;;;;;;;5015623;28;20537;-72
2022/03/01 10:39:01;;;;;;;14.80;9.27;;;;;;;;;;5014739;28;20890;-71
2022/03/01 10:41:36;;;;;;;18.37;9.67;;;;;;;;;;5016134;28;20528;-72
2022/03/01 10:44:07;;;;;;;15.60;8.33;;;;;;;;;;5016237;28;20430;-72
2022/03/01 10:46:40;;;;;;;14.07;8.63;;;;;;;;;;5014980;28;20494;-72
2022/03/01 10:49:10;;;;;;;14.00;9.90;;;;;;;;;;5011741;28;20457;-71
2022/03/01 10:51:53;;;;;;;23.57;10.60;;;;;;;;;;5015340;28;20462;-72
2022/03/01 10:54:32;;;;;;;15.50;9.83;;;;;;;;;;5039199;28;20463;-72
2022/03/01 10:57:06;;;;;;;17.27;9.23;;;;;;;;;;5006750;28;20743;-72
2022/03/01 10:59:48;;;;;;;13.83;8.37;;;;;;;;;;4998173;28;20454;-72
2022/03/01 11:02:20;;;;;;;17.07;11.07;;;;;;;;;;5069591;28;20474;-72
2022/03/01 11:04:56;;;;;;;16.37;9.93;;;;;;;;;;5013024;28;20731;-72
2022/03/01 11:07:29;;;;;;;17.13;10.10;;;;;;;;;;5012256;28;20517;-73
2022/03/01 11:10:01;;;;;;;16.27;9.07;;;;;;;;;;5012683;28;20520;-72
2022/03/01 11:12:35;;;;;;;17.20;8.33;;;;;;;;;;5028003;28;20608;-73
2022/03/01 11:15:10;;;;;;;14.93;10.27;;;;;;;;;;5012623;28;20574;-73
2022/03/01 11:17:42;;;;;;;16.57;10.67;;;;;;;;;;5013640;28;20632;-71
2022/03/01 11:20:11;;;;;;;13.60;9.37;;;;;;;;;;5018876;28;20528;-72
2022/03/01 11:22:44;;;;;;;15.30;9.30;;;;;;;;;;5026205;28;20463;-74
2022/03/01 11:25:22;;;;;;;15.57;9.30;;;;;;;;;;5013240;28;20454;-73
2022/03/01 11:27:54;;;;;;;19.93;9.23;;;;;;;;;;5013686;28;20486;-73
2022/03/01 11:30:29;;;;;;;13.63;10.00;;;;;;;;;;5014326;28;20516;-73
2022/03/01 11:33:01;;;;;;;16.53;9.57;;;;;;;;;;5012454;28;20462;-73
2022/03/01 11:38:22;;;;;;;21.20;10.80;;;;;;;;;;5014847;28;20451;-73
2022/03/01 11:41:02;;;;;;;16.47;9.80;;;;;;;;;;5012097;28;20443;-73
2022/03/01 11:43:37;;;;;;;15.23;8.73;;;;;;;;;;5013993;28;20443;-72
2022/03/01 11:46:15;;;;;;;12.93;9.50;;;;;;;;;;5011996;28;20728;-72
2022/03/01 11:48:53;;;;;;;15.57;9.40;;;;;;;;;;5013881;28;20455;-72
2022/03/01 11:52:02;;;;;;;12.53;9.13;;;;;;;;;;5020502;28;20758;-72
2022/03/01 11:55:05;;;;;;;;;;;;;;;;;;;;;
2022/03/01 11:57:36;;;;;;;18.83;10.30;;;;;;;;;;5031179;27;20449;-71
2022/03/01 12:00:08;;;;;;;14.03;8.93;;;;;;;;;;5060925;28;20488;-72
2022/03/01 12:02:37;;;;;;;14.40;9.10;;;;;;;;;;5013250;28;20447;-74
2022/03/01 12:05:08;;;;;;;21.80;13.03;;;;;;;;;;5013956;28;20455;-73
2022/03/01 12:07:36;;;;;;;15.30;9.93;;;;;;;;;;5012667;28;20999;-72
2022/03/01 12:10:07;;;;;;;15.77;8.47;;;;;;;;;;5012889;28;20455;-72
2022/03/01 12:12:37;;;;;;;12.30;8.77;;;;;;;;;;5010922;28;20470;-72
2022/03/01 12:15:12;;;;;;;16.50;10.50;;;;;;;;;;5012108;28;21099;-72
2022/03/01 12:17:46;;;;;;;14.83;8.10;;;;;;;;;;5011332;28;20451;-72
2022/03/01 12:20:24;;;;;;;13.37;7.90;;;;;;;;;;5010977;28;20452;-72
2022/03/01 12:23:03;;;;;;;15.30;8.63;;;;;;;;;;5054270;28;20459;-72
2022/03/01 12:25:35;;;;;;;14.60;7.67;;;;;;;;;;5010556;28;20455;-73
2022/03/01 12:28:15;;;;;;;17.70;9.10;;;;;;;;;;5033760;28;20537;-72
2022/03/01 12:30:48;;;;;;;17.43;9.77;;;;;;;;;;4991619;28;20478;-73
2022/03/01 12:33:17;;;;;;;12.40;8.10;;;;;;;;;;4992686;28;20448;-72
2022/03/01 12:35:58;;;;;;;15.77;10.17;;;;;;;;;;5011631;28;20446;-73
2022/03/01 12:38:30;;;;;;;16.47;9.07;;;;;;;;;;5010020;28;20471;-72
2022/03/01 12:41:08;;;;;;;14.87;8.20;;;;;;;;;;5016172;28;20531;-72
2022/03/01 12:43:48;;;;;;;15.60;7.50;;;;;;;;;;5037281;28;20520;-73
2022/03/01 12:46:23;;;;;;;13.50;8.87;;;;;;;;;;5012598;28;20474;-74
2022/03/01 12:48:56;;;;;;;14.10;8.33;;;;;;;;;;5021695;28;20474;-73
2022/03/01 12:51:27;;;;;;;14.67;8.20;;;;;;;;;;5010796;28;20543;-73
2022/03/01 12:53:59;;;;;;;15.33;8.80;;;;;;;;;;5000116;28;20538;-73
2022/03/01 12:56:29;;;;;;;12.87;8.20;;;;;;;;;;5010751;28;20474;-74
2022/03/01 12:59:05;;;;;;;12.57;8.47;;;;;;;;;;5105933;28;20447;-73
2022/03/01 13:01:39;;;;;;;14.13;9.10;;;;;;;;;;5093765;28;20455;-72
2022/03/01 13:04:12;;;;;;;20.07;10.37;;;;;;;;;;5030830;28;20461;-73
2022/03/01 13:06:41;;;;;;;15.57;6.97;;;;;;;;;;5013919;28;20479;-72
2022/03/01 13:09:09;;;;;;;12.63;8.50;;;;;;;;;;4996879;28;20505;-72
2022/03/01 13:11:42;;;;;;;18.97;9.67;;;;;;;;;;5037273;28;20529;-73
2022/03/01 13:14:22;;;;;;;15.90;8.00;;;;;;;;;;5022349;28;20481;-73
2022/03/01 13:19:44;;;;;;;11.30;7.13;;;;;;;;;;5006643;28;20501;-71
2022/03/01 13:22:15;;;;;;;13.43;8.47;;;;;;;;;;5021929;28;20454;-71
2022/03/01 13:24:48;;;;;;;14.17;7.90;;;;;;;;;;5016006;28;20448;-72
2022/03/01 13:27:18;;;;;;;14.60;8.40;;;;;;;;;;5017082;28;21198;-72
2022/03/01 13:29:48;;;;;;;61.70;41.60;;;;;;;;;;5023605;28;21040;-71
2022/03/01 13:32:19;;;;;;;17.47;10.13;;;;;;;;;;5032504;28;20464;-71
2022/03/01 13:34:48;;;;;;;13.73;8.83;;;;;;;;;;5060148;28;20516;-72
2022/03/01 13:37:17;;;;;;;12.67;7.90;;;;;;;;;;5014794;28;20484;-72
2022/03/01 13:40:01;;;;;;;24.93;10.97;;;;;;;;;;5019039;28;20451;-72
2022/03/01 13:42:31;;;;;;;15.57;9.40;;;;;;;;;;4985908;28;21027;-71
2022/03/01 13:45:15;;;;;;;14.37;8.57;;;;;;;;;;5059674;28;20510;-73
2022/03/01 13:47:44;;;;;;;14.37;8.40;;;;;;;;;;5009205;28;20509;-70
2022/03/01 13:50:16;;;;;;;14.40;10.07;;;;;;;;;;5000241;28;20447;-72
2022/03/01 13:52:44;;;;;;;17.80;8.73;;;;;;;;;;5003542;28;20463;-72
2022/03/01 13:55:13;;;;;;;13.50;7.43;;;;;;;;;;5076180;28;20451;-72
2022/03/01 13:57:43;;;;;;;15.50;8.40;;;;;;;;;;5081231;28;20464;-71
2022/03/01 14:00:17;;;;;;;13.27;8.20;;;;;;;;;;5073492;28;21056;-72
2022/03/01 14:02:53;;;;;;;12.83;8.30;;;;;;;;;;5072584;28;20456;-72
2022/03/01 14:05:38;;;;;;;17.43;8.50;;;;;;;;;;5081839;28;20455;-71
2022/03/01 14:08:12;;;;;;;14.70;8.43;;;;;;;;;;5082308;28;20548;-74
2022/03/01 14:11:02;;;;;;;18.00;9.17;;;;;;;;;;5093581;28;20446;-73
2022/03/01 14:13:32;;;;;;;19.67;9.30;;;;;;;;;;5094063;28;20448;-73
2022/03/01 14:16:07;;;;;;;18.17;10.23;;;;;;;;;;5080401;28;20799;-72
2022/03/01 14:18:38;;;;;;;21.10;10.23;;;;;;;;;;5091446;28;20550;-73
2022/03/01 14:21:09;;;;;;;14.80;7.87;;;;;;;;;;5095139;28;20459;-72
2022/03/01 14:23:38;;;;;;;13.90;8.17;;;;;;;;;;5080998;28;20537;-72
2022/03/01 14:26:06;;;;;;;12.00;8.20;;;;;;;;;;5110752;28;20795;-72
2022/03/01 14:28:34;;;;;;;18.70;8.77;;;;;;;;;;5082403;28;20823;-73
2022/03/01 14:31:08;;;;;;;15.23;8.43;;;;;;;;;;5089733;28;20547;-72
2022/03/01 14:33:42;;;;;;;16.70;8.83;;;;;;;;;;5090137;28;20451;-72
2022/03/01 14:36:11;;;;;;;14.60;8.87;;;;;;;;;;5072360;28;20451;-72
2022/03/01 14:38:39;;;;;;;12.50;7.53;;;;;;;;;;5111847;28;20435;-72
2022/03/01 14:41:07;;;;;;;17.73;9.40;;;;;;;;;;5111899;28;20842;-72
2022/03/01 14:43:39;;;;;;;18.90;9.97;;;;;;;;;;5096578;28;20514;-73
2022/03/01 14:46:10;;;;;;;13.30;7.90;;;;;;;;;;5092553;28;20509;-73
2022/03/01 14:48:42;;;;;;;16.23;9.53;;;;;;;;;;5094381;28;20475;-73
2022/03/01 14:51:11;;;;;;;15.50;8.83;;;;;;;;;;5090470;28;20454;-72
2022/03/01 14:53:39;;;;;;;18.67;9.97;;;;;;;;;;5094267;28;20443;-73
2022/03/01 14:56:10;;;;;;;14.73;10.33;;;;;;;;;;5001270;28;20456;-72
2022/03/01 14:58:41;;;;;;;14.40;8.80;;;;;;;;;;5013280;28;20451;-72
2022/03/01 15:01:09;;;;;;;15.83;9.50;;;;;;;;;;5011386;28;20459;-73
2022/03/01 15:03:37;;;;;;;12.37;7.37;;;;;;;;;;5034603;28;20448;-72
2022/03/01 15:06:09;;;;;;;18.23;8.90;;;;;;;;;;4996726;28;20457;-73
2022/03/01 15:08:37;;;;;;;14.90;9.27;;;;;;;;;;4989616;28;20480;-73